This is the latest recevied weather packets stored in our database for station/object HS2LXA-WX. If no packets are shown the sender has not sent any weather packets the latest 10 day(s).
| Time | Temp. | Humidity | Pressure | Rain* | Wind** | Luminosity | Snow |
|---|---|---|---|---|---|---|---|
| 1777685288 | 32.22° C | 61% | 1013.2 hPa | 0 mm | - | - | - |
| 1777684371 | 31.67° C | 63% | 1013.1 hPa | 0 mm | - | - | - |
| 1777683771 | 31.67° C | 63% | 1013.1 hPa | 0 mm | - | - | - |
| 1777683169 | 31.67° C | 63% | 1013.1 hPa | 0 mm | - | - | - |
| 1777682569 | 31.67° C | 65% | 1013.1 hPa | 0 mm | - | - | - |
| 1777681970 | 31.67° C | 64% | 1013.2 hPa | 0 mm | - | - | - |
| 1777681369 | 31.11° C | 66% | 1013.2 hPa | 0 mm | - | - | - |
| 1777680769 | 31.67° C | 65% | 1013.1 hPa | 0 mm | - | - | - |
| 1777680168 | 31.11° C | 66% | 1013.1 hPa | 0 mm | - | - | - |
| 1777679567 | 31.11° C | 67% | 1013.2 hPa | 0 mm | - | - | - |
| 1777678967 | 31.11° C | 66% | 1013.1 hPa | 0 mm | - | - | - |
| 1777678368 | 31.67° C | 66% | 1013.1 hPa | 0 mm | - | - | - |
| 1777677767 | 31.67° C | 67% | 1013.2 hPa | 0 mm | - | - | - |
| 1777676687 | 31.11° C | 73% | 1013.1 hPa | 0 mm | - | - | - |
| 1777675376 | 32.22° C | 74% | 1013.1 hPa | 0 mm | - | - | - |
| 1777674675 | 31.67° C | 75% | 1013.2 hPa | 0 mm | - | - | - |
| 1777674076 | 32.22° C | 73% | 1013.2 hPa | 0 mm | - | - | - |
| 1777673471 | 32.22° C | 73% | 1013.1 hPa | 0 mm | - | - | - |
| 1777672872 | 32.22° C | 73% | 1013.1 hPa | 0 mm | - | - | - |
| 1777672271 | 32.22° C | 73% | 1013.2 hPa | 0 mm | - | - | - |
| 1777671668 | 32.22° C | 73% | 1013.2 hPa | 0 mm | - | - | - |
| 1777671068 | 31.67° C | 74% | 1013.1 hPa | 0 mm | - | - | - |
| 1777670467 | 32.22° C | 73% | 1013.1 hPa | 0 mm | - | - | - |
| 1777669438 | 32.22° C | 73% | 1013.2 hPa | 0 mm | - | - | - |
| 1777668839 | 31.67° C | 73% | 1013.1 hPa | 0 mm | - | - | - |
* Rain latest hour (hover to see other rain measurements)
** Current wind speed in m/s (hover to see current wind gust speed)